sensor_id;sensor_type;location;lat;lon;timestamp;pressure;altitude;pressure_sealevel;temperature;humidity
40992;BME280;29633;49.168;9.848;2023-03-18T00:00:46;96398.69;;;14.08;57.56
40992;BME280;29633;49.168;9.848;2023-03-18T00:03:11;96397.84;;;14.08;57.41
40992;BME280;29633;49.168;9.848;2023-03-18T00:05:37;96395.75;;;14.03;57.56
40992;BME280;29633;49.168;9.848;2023-03-18T00:08:04;96402.22;;;13.99;57.47
40992;BME280;29633;49.168;9.848;2023-03-18T00:10:31;96400.88;;;13.95;57.53
40992;BME280;29633;49.168;9.848;2023-03-18T00:12:57;96409.03;;;13.92;57.59
40992;BME280;29633;49.168;9.848;2023-03-18T00:15:24;96409.28;;;13.89;57.52
40992;BME280;29633;49.168;9.848;2023-03-18T00:17:49;96406.88;;;13.88;57.48
40992;BME280;29633;49.168;9.848;2023-03-18T00:20:17;96407.69;;;13.88;57.61
40992;BME280;29633;49.168;9.848;2023-03-18T00:22:43;96413.03;;;13.87;57.54
40992;BME280;29633;49.168;9.848;2023-03-18T00:25:11;96415.94;;;13.84;57.54
40992;BME280;29633;49.168;9.848;2023-03-18T00:27:38;96424.06;;;13.80;57.58
40992;BME280;29633;49.168;9.848;2023-03-18T00:30:05;96429.41;;;13.79;57.68
40992;BME280;29633;49.168;9.848;2023-03-18T00:32:31;96429.59;;;13.77;57.67
40992;BME280;29633;49.168;9.848;2023-03-18T00:34:57;96428.25;;;13.73;57.63
40992;BME280;29633;49.168;9.848;2023-03-18T00:37:24;96426.91;;;13.69;57.75
40992;BME280;29633;49.168;9.848;2023-03-18T00:39:59;96426.69;;;13.63;57.79
40992;BME280;29633;49.168;9.848;2023-03-18T00:42:36;96425.19;;;13.60;57.89
40992;BME280;29633;49.168;9.848;2023-03-18T00:45:05;96424.69;;;13.57;57.74
40992;BME280;29633;49.168;9.848;2023-03-18T00:47:32;96428.28;;;13.56;57.71
40992;BME280;29633;49.168;9.848;2023-03-18T00:49:57;96422.53;;;13.52;57.85
40992;BME280;29633;49.168;9.848;2023-03-18T00:52:23;96426.41;;;13.48;57.95
40992;BME280;29633;49.168;9.848;2023-03-18T00:54:50;96427.81;;;13.43;57.84
40992;BME280;29633;49.168;9.848;2023-03-18T00:57:15;96425.81;;;13.37;57.86
40992;BME280;29633;49.168;9.848;2023-03-18T00:59:41;96429.53;;;13.34;57.87
40992;BME280;29633;49.168;9.848;2023-03-18T01:02:07;96433.09;;;13.33;57.87
40992;BME280;29633;49.168;9.848;2023-03-18T01:04:33;96433.22;;;13.31;57.88
40992;BME280;29633;49.168;9.848;2023-03-18T01:06:59;96437.66;;;13.31;58.02
40992;BME280;29633;49.168;9.848;2023-03-18T01:09:25;96440.25;;;13.31;57.91
40992;BME280;29633;49.168;9.848;2023-03-18T01:11:51;96430.81;;;13.30;57.93
40992;BME280;29633;49.168;9.848;2023-03-18T01:14:17;96431.09;;;13.27;57.98
40992;BME280;29633;49.168;9.848;2023-03-18T01:16:43;96431.38;;;13.24;57.86
40992;BME280;29633;49.168;9.848;2023-03-18T01:19:11;96431.66;;;13.21;58.03
40992;BME280;29633;49.168;9.848;2023-03-18T01:21:38;96427.44;;;13.20;57.95
40992;BME280;29633;49.168;9.848;2023-03-18T01:24:04;96425.28;;;13.15;58.07
40992;BME280;29633;49.168;9.848;2023-03-18T01:26:29;96424.47;;;13.15;57.97
40992;BME280;29633;49.168;9.848;2023-03-18T01:28:55;96420.22;;;13.14;57.93
40992;BME280;29633;49.168;9.848;2023-03-18T01:31:21;96428.03;;;13.14;57.84
40992;BME280;29633;49.168;9.848;2023-03-18T01:33:48;96426.53;;;13.11;58.06
40992;BME280;29633;49.168;9.848;2023-03-18T01:36:14;96425.03;;;13.09;57.97
40992;BME280;29633;49.168;9.848;2023-03-18T01:38:40;96429.53;;;13.07;57.98
40992;BME280;29633;49.168;9.848;2023-03-18T01:41:07;96425.47;;;13.04;58.13
40992;BME280;29633;49.168;9.848;2023-03-18T01:43:34;96425.59;;;13.03;58.08
40992;BME280;29633;49.168;9.848;2023-03-18T01:46:01;96428.34;;;13.01;58.08
40992;BME280;29633;49.168;9.848;2023-03-18T01:48:46;96427.53;;;13.01;57.99
40992;BME280;29633;49.168;9.848;2023-03-18T01:51:14;96431.91;;;13.00;57.92
40992;BME280;29633;49.168;9.848;2023-03-18T01:53:44;96427.53;;;13.01;58.16
40992;BME280;29633;49.168;9.848;2023-03-18T01:56:11;96424.94;;;13.01;58.09
40992;BME280;29633;49.168;9.848;2023-03-18T01:58:42;96428.66;;;12.98;58.17
40992;BME280;29633;49.168;9.848;2023-03-18T02:01:13;96433.03;;;12.98;57.97
40992;BME280;29633;49.168;9.848;2023-03-18T02:03:42;96431.38;;;12.97;57.96
40992;BME280;29633;49.168;9.848;2023-03-18T02:06:08;96428.13;;;12.95;58.20
40992;BME280;29633;49.168;9.848;2023-03-18T02:08:36;96433.34;;;12.95;57.96
40992;BME280;29633;49.168;9.848;2023-03-18T02:11:02;96432.66;;;12.93;58.15
40992;BME280;29633;49.168;9.848;2023-03-18T02:13:28;96430.47;;;12.88;57.96
40992;BME280;29633;49.168;9.848;2023-03-18T02:16:00;96438.44;;;12.87;58.11
40992;BME280;29633;49.168;9.848;2023-03-18T02:18:33;96433.38;;;12.85;58.33
40992;BME280;29633;49.168;9.848;2023-03-18T02:23:59;96437.63;;;12.86;58.29
40992;BME280;29633;49.168;9.848;2023-03-18T02:26:30;96441.47;;;12.82;58.30
40992;BME280;29633;49.168;9.848;2023-03-18T02:29:01;96437.91;;;12.83;58.19
40992;BME280;29633;49.168;9.848;2023-03-18T02:31:30;96441.47;;;12.82;58.25
40992;BME280;29633;49.168;9.848;2023-03-18T02:33:57;96437.22;;;12.81;58.37
40992;BME280;29633;49.168;9.848;2023-03-18T02:36:25;96440.81;;;12.80;58.26
40992;BME280;29633;49.168;9.848;2023-03-18T02:38:52;96432.84;;;12.81;58.27
40992;BME280;29633;49.168;9.848;2023-03-18T02:41:21;96437.75;;;12.84;58.45
40992;BME280;29633;49.168;9.848;2023-03-18T02:43:48;96436.66;;;12.87;58.24
40992;BME280;29633;49.168;9.848;2023-03-18T02:48:51;96440.75;;;12.90;58.26
40992;BME280;29633;49.168;9.848;2023-03-18T02:51:17;96438.97;;;12.90;58.47
40992;BME280;29633;49.168;9.848;2023-03-18T02:53:46;96437.19;;;12.91;58.52
40992;BME280;29633;49.168;9.848;2023-03-18T02:56:12;96435.25;;;12.93;58.54
40992;BME280;29633;49.168;9.848;2023-03-18T02:58:37;96435.13;;;12.94;58.48
40992;BME280;29633;49.168;9.848;2023-03-18T03:01:04;96444.41;;;12.97;58.52
40992;BME280;29633;49.168;9.848;2023-03-18T03:03:31;96443.28;;;12.99;58.57
40992;BME280;29633;49.168;9.848;2023-03-18T03:05:56;96443.81;;;13.03;58.47
40992;BME280;29633;49.168;9.848;2023-03-18T03:08:22;96447.09;;;13.05;58.40
40992;BME280;29633;49.168;9.848;2023-03-18T03:10:48;96449.69;;;13.05;58.40
40992;BME280;29633;49.168;9.848;2023-03-18T03:13:16;96447.75;;;13.07;58.46
40992;BME280;29633;49.168;9.848;2023-03-18T03:15:41;96448.59;;;13.07;58.56
40992;BME280;29633;49.168;9.848;2023-03-18T03:18:07;96447.75;;;13.07;58.48
40992;BME280;29633;49.168;9.848;2023-03-18T03:20:33;96453.94;;;13.06;58.55
40992;BME280;29633;49.168;9.848;2023-03-18T03:23:09;96454.75;;;13.06;58.52
40992;BME280;29633;49.168;9.848;2023-03-18T03:25:35;96460.09;;;13.05;58.66
40992;BME280;29633;49.168;9.848;2023-03-18T03:28:02;96466.13;;;13.05;58.57
40992;BME280;29633;49.168;9.848;2023-03-18T03:30:28;96465.44;;;13.03;58.71
40992;BME280;29633;49.168;9.848;2023-03-18T03:32:54;96462.03;;;13.03;58.50
40992;BME280;29633;49.168;9.848;2023-03-18T03:35:21;96469.81;;;13.03;58.60
40992;BME280;29633;49.168;9.848;2023-03-18T03:37:47;96471.78;;;13.01;58.74
40992;BME280;29633;49.168;9.848;2023-03-18T03:40:15;96472.88;;;12.98;58.65
40992;BME280;29633;49.168;9.848;2023-03-18T03:42:41;96467.81;;;12.97;58.76
40992;BME280;29633;49.168;9.848;2023-03-18T03:45:11;96464.38;;;12.96;58.81
40992;BME280;29633;49.168;9.848;2023-03-18T03:47:39;96470.56;;;12.95;58.79
40992;BME280;29633;49.168;9.848;2023-03-18T03:50:05;96475.91;;;12.94;58.87
40992;BME280;29633;49.168;9.848;2023-03-18T03:52:31;96483.03;;;12.92;58.89
40992;BME280;29633;49.168;9.848;2023-03-18T03:54:57;96479.47;;;12.93;58.65
40992;BME280;29633;49.168;9.848;2023-03-18T03:57:25;96489.75;;;12.94;58.79
40992;BME280;29633;49.168;9.848;2023-03-18T03:59:52;96480.81;;;12.97;58.84
40992;BME280;29633;49.168;9.848;2023-03-18T04:02:18;96483.44;;;12.97;58.64
40992;BME280;29633;49.168;9.848;2023-03-18T04:04:43;96488.94;;;12.94;58.82
40992;BME280;29633;49.168;9.848;2023-03-18T04:07:11;96487.97;;;12.95;58.72
40992;BME280;29633;49.168;9.848;2023-03-18T04:09:38;96487.16;;;12.94;58.86
40992;BME280;29633;49.168;9.848;2023-03-18T04:12:06;96490.84;;;12.92;58.84
40992;BME280;29633;49.168;9.848;2023-03-18T04:14:32;96498.63;;;12.92;58.89
40992;BME280;29633;49.168;9.848;2023-03-18T04:16:57;96500.44;;;12.91;58.91
40992;BME280;29633;49.168;9.848;2023-03-18T04:19:26;96489.22;;;12.91;58.75
40992;BME280;29633;49.168;9.848;2023-03-18T04:21:52;96500.56;;;12.90;58.72
40992;BME280;29633;49.168;9.848;2023-03-18T04:24:19;96491.13;;;12.89;58.71
40992;BME280;29633;49.168;9.848;2023-03-18T04:26:45;96497.31;;;12.88;58.84
40992;BME280;29633;49.168;9.848;2023-03-18T04:29:10;96492.53;;;12.83;58.98
40992;BME280;29633;49.168;9.848;2023-03-18T04:31:36;96496.22;;;12.80;58.86
40992;BME280;29633;49.168;9.848;2023-03-18T04:34:02;96499.13;;;12.77;59.08
40992;BME280;29633;49.168;9.848;2023-03-18T04:36:28;96501.06;;;12.75;59.06
40992;BME280;29633;49.168;9.848;2023-03-18T04:38:54;96497.75;;;12.73;58.97
40992;BME280;29633;49.168;9.848;2023-03-18T04:41:21;96502.97;;;12.73;58.84
40992;BME280;29633;49.168;9.848;2023-03-18T04:43:47;96497.75;;;12.73;58.83
40992;BME280;29633;49.168;9.848;2023-03-18T04:46:13;96500.53;;;12.72;58.99
40992;BME280;29633;49.168;9.848;2023-03-18T04:48:40;96495.63;;;12.69;58.80
40992;BME280;29633;49.168;9.848;2023-03-18T04:51:06;96510.53;;;12.67;59.01
40992;BME280;29633;49.168;9.848;2023-03-18T04:53:34;96511.09;;;12.61;59.05
40992;BME280;29633;49.168;9.848;2023-03-18T04:56:00;96504.66;;;12.55;59.02
40992;BME280;29633;49.168;9.848;2023-03-18T04:58:26;96501.41;;;12.53;58.96
40992;BME280;29633;49.168;9.848;2023-03-18T05:00:52;96502.66;;;12.49;59.07
40992;BME280;29633;49.168;9.848;2023-03-18T05:03:19;96508.13;;;12.46;58.95
40992;BME280;29633;49.168;9.848;2023-03-18T05:05:44;96501.56;;;12.42;59.04
40992;BME280;29633;49.168;9.848;2023-03-18T05:08:10;96508.41;;;12.43;58.95
40992;BME280;29633;49.168;9.848;2023-03-18T05:10:36;96505.81;;;12.43;59.14
40992;BME280;29633;49.168;9.848;2023-03-18T05:13:01;96503.50;;;12.40;59.02
40992;BME280;29633;49.168;9.848;2023-03-18T05:15:28;96501.84;;;12.39;59.02
40992;BME280;29633;49.168;9.848;2023-03-18T05:17:54;96496.00;;;12.37;59.08
40992;BME280;29633;49.168;9.848;2023-03-18T05:20:20;96509.13;;;12.36;59.07
40992;BME280;29633;49.168;9.848;2023-03-18T05:22:45;96504.59;;;12.38;59.03
40992;BME280;29633;49.168;9.848;2023-03-18T05:25:11;96501.19;;;12.37;58.93
40992;BME280;29633;49.168;9.848;2023-03-18T05:27:37;96502.81;;;12.38;58.99
40992;BME280;29633;49.168;9.848;2023-03-18T05:30:04;96504.75;;;12.36;59.07
40992;BME280;29633;49.168;9.848;2023-03-18T05:32:30;96503.09;;;12.35;59.00
40992;BME280;29633;49.168;9.848;2023-03-18T05:34:56;96504.75;;;12.36;58.89
40992;BME280;29633;49.168;9.848;2023-03-18T05:37:22;96498.72;;;12.36;58.95
40992;BME280;29633;49.168;9.848;2023-03-18T05:39:48;96504.03;;;12.34;58.95
40992;BME280;29633;49.168;9.848;2023-03-18T05:42:14;96511.84;;;12.34;58.95
40992;BME280;29633;49.168;9.848;2023-03-18T05:44:40;96507.88;;;12.30;59.00
40992;BME280;29633;49.168;9.848;2023-03-18T05:47:07;96515.69;;;12.30;58.95
40992;BME280;29633;49.168;9.848;2023-03-18T05:49:33;96508.03;;;12.28;58.84
40992;BME280;29633;49.168;9.848;2023-03-18T05:51:59;96512.28;;;12.29;59.02
40992;BME280;29633;49.168;9.848;2023-03-18T05:54:24;96511.47;;;12.29;58.80
40992;BME280;29633;49.168;9.848;2023-03-18T05:56:50;96515.13;;;12.26;58.80
40992;BME280;29633;49.168;9.848;2023-03-18T05:59:18;96521.72;;;12.21;58.89
40992;BME280;29633;49.168;9.848;2023-03-18T06:01:44;96515.72;;;12.20;59.19
40992;BME280;29633;49.168;9.848;2023-03-18T06:04:10;96521.72;;;12.21;59.03
40992;BME280;29633;49.168;9.848;2023-03-18T06:06:36;96519.25;;;12.19;59.16
40992;BME280;29633;49.168;9.848;2023-03-18T06:09:06;96512.97;;;12.22;58.83
40992;BME280;29633;49.168;9.848;2023-03-18T06:11:32;96519.00;;;12.22;58.98
40992;BME280;29633;49.168;9.848;2023-03-18T06:13:57;96518.56;;;12.27;58.69
40992;BME280;29633;49.168;9.848;2023-03-18T06:16:24;96519.25;;;12.29;58.75
40992;BME280;29633;49.168;9.848;2023-03-18T06:18:50;96518.56;;;12.37;58.62
40992;BME280;29633;49.168;9.848;2023-03-18T06:21:16;96519.75;;;12.42;58.71
40992;BME280;29633;49.168;9.848;2023-03-18T06:23:42;96517.28;;;12.50;58.63
40992;BME280;29633;49.168;9.848;2023-03-18T06:26:09;96514.13;;;12.56;58.64
40992;BME280;29633;49.168;9.848;2023-03-18T06:28:35;96513.69;;;12.61;58.63
40992;BME280;29633;49.168;9.848;2023-03-18T06:31:01;96521.22;;;12.64;58.54
40992;BME280;29633;49.168;9.848;2023-03-18T06:33:27;96525.03;;;12.69;58.66
40992;BME280;29633;49.168;9.848;2023-03-18T06:35:54;96523.50;;;12.76;58.64
40992;BME280;29633;49.168;9.848;2023-03-18T06:38:20;96524.03;;;12.80;58.73
40992;BME280;29633;49.168;9.848;2023-03-18T06:40:46;96531.41;;;12.84;58.73
40992;BME280;29633;49.168;9.848;2023-03-18T06:43:12;96533.44;;;12.91;58.66
40992;BME280;29633;49.168;9.848;2023-03-18T06:45:38;96530.25;;;12.97;58.55
40992;BME280;29633;49.168;9.848;2023-03-18T06:48:05;96528.72;;;13.04;58.51
40992;BME280;29633;49.168;9.848;2023-03-18T06:50:31;96532.69;;;13.08;58.51
40992;BME280;29633;49.168;9.848;2023-03-18T06:52:58;96534.88;;;13.12;58.50
40992;BME280;29633;49.168;9.848;2023-03-18T06:55:26;96527.59;;;13.16;58.56
40992;BME280;29633;49.168;9.848;2023-03-18T06:57:52;96526.34;;;13.20;58.68
40992;BME280;29633;49.168;9.848;2023-03-18T07:00:18;96524.94;;;13.25;58.58
40992;BME280;29633;49.168;9.848;2023-03-18T07:02:44;96534.75;;;13.31;58.71
40992;BME280;29633;49.168;9.848;2023-03-18T07:05:10;96529.13;;;13.36;58.51
40992;BME280;29633;49.168;9.848;2023-03-18T07:07:37;96525.94;;;13.42;58.69
40992;BME280;29633;49.168;9.848;2023-03-18T07:10:08;96536.59;;;13.49;58.67
40992;BME280;29633;49.168;9.848;2023-03-18T07:12:34;96543.69;;;13.56;58.54
40992;BME280;29633;49.168;9.848;2023-03-18T07:15:02;96539.53;;;13.63;58.49
40992;BME280;29633;49.168;9.848;2023-03-18T07:17:28;96549.34;;;13.69;58.51
40992;BME280;29633;49.168;9.848;2023-03-18T07:19:53;96546.56;;;13.71;58.54
40992;BME280;29633;49.168;9.848;2023-03-18T07:22:19;96548.75;;;13.75;58.68
40992;BME280;29633;49.168;9.848;2023-03-18T07:24:45;96558.59;;;13.82;58.66
40992;BME280;29633;49.168;9.848;2023-03-18T07:27:11;96552.78;;;13.88;58.67
40992;BME280;29633;49.168;9.848;2023-03-18T07:29:41;96553.81;;;13.95;58.66
40992;BME280;29633;49.168;9.848;2023-03-18T07:32:06;96560.91;;;14.02;58.55
40992;BME280;29633;49.168;9.848;2023-03-18T07:34:32;96561.63;;;14.12;58.76
40992;BME280;29633;49.168;9.848;2023-03-18T07:36:58;96558.56;;;14.17;58.63
40992;BME280;29633;49.168;9.848;2023-03-18T07:39:24;96566.75;;;14.22;58.61
40992;BME280;29633;49.168;9.848;2023-03-18T07:41:50;96563.88;;;14.25;58.40
40992;BME280;29633;49.168;9.848;2023-03-18T07:44:16;96565.03;;;14.30;58.67
40992;BME280;29633;49.168;9.848;2023-03-18T07:46:42;96565.28;;;14.37;58.69
40992;BME280;29633;49.168;9.848;2023-03-18T07:49:07;96569.91;;;14.43;58.53
40992;BME280;29633;49.168;9.848;2023-03-18T07:51:33;96569.63;;;14.54;58.56
40992;BME280;29633;49.168;9.848;2023-03-18T07:53:58;96563.50;;;14.63;58.58
40992;BME280;29633;49.168;9.848;2023-03-18T07:56:24;96567.00;;;14.72;58.54
40992;BME280;29633;49.168;9.848;2023-03-18T07:58:51;96565.09;;;14.82;58.56
40992;BME280;29633;49.168;9.848;2023-03-18T08:01:17;96567.28;;;14.95;58.59
40992;BME280;29633;49.168;9.848;2023-03-18T08:03:44;96565.91;;;15.08;58.46
40992;BME280;29633;49.168;9.848;2023-03-18T08:06:11;96576.53;;;15.15;58.49
40992;BME280;29633;49.168;9.848;2023-03-18T08:08:38;96570.69;;;15.21;58.35
40992;BME280;29633;49.168;9.848;2023-03-18T08:11:07;96569.09;;;15.28;58.56
40992;BME280;29633;49.168;9.848;2023-03-18T08:13:34;96563.25;;;15.42;58.40
40992;BME280;29633;49.168;9.848;2023-03-18T08:16:00;96559.09;;;15.57;58.53
40992;BME280;29633;49.168;9.848;2023-03-18T08:18:26;96568.59;;;15.74;58.21
40992;BME280;29633;49.168;9.848;2023-03-18T08:20:52;96562.09;;;15.87;58.27
40992;BME280;29633;49.168;9.848;2023-03-18T08:23:18;96562.28;;;16.01;58.21
40992;BME280;29633;49.168;9.848;2023-03-18T08:25:46;96571.78;;;16.18;58.15
40992;BME280;29633;49.168;9.848;2023-03-18T08:28:14;96562.78;;;16.29;58.08
40992;BME280;29633;49.168;9.848;2023-03-18T08:30:40;96573.59;;;16.42;58.18
40992;BME280;29633;49.168;9.848;2023-03-18T08:33:06;96576.69;;;16.54;58.21
40992;BME280;29633;49.168;9.848;2023-03-18T08:35:32;96565.75;;;16.66;57.90
40992;BME280;29633;49.168;9.848;2023-03-18T08:37:58;96563.44;;;16.80;57.86
40992;BME280;29633;49.168;9.848;2023-03-18T08:40:24;96569.97;;;16.92;57.94
40992;BME280;29633;49.168;9.848;2023-03-18T08:42:50;96570.59;;;17.02;58.16
40992;BME280;29633;49.168;9.848;2023-03-18T08:45:17;96572.38;;;17.09;58.10
40992;BME280;29633;49.168;9.848;2023-03-18T08:47:42;96563.66;;;17.17;58.00
40992;BME280;29633;49.168;9.848;2023-03-18T08:50:09;96567.88;;;17.26;58.06
40992;BME280;29633;49.168;9.848;2023-03-18T08:52:35;96568.34;;;17.38;57.90
40992;BME280;29633;49.168;9.848;2023-03-18T08:55:04;96572.72;;;17.45;57.93
40992;BME280;29633;49.168;9.848;2023-03-18T08:57:30;96564.00;;;17.53;57.79
40992;BME280;29633;49.168;9.848;2023-03-18T08:59:56;96567.56;;;17.68;57.96
40992;BME280;29633;49.168;9.848;2023-03-18T09:02:22;96566.66;;;17.84;57.87
40992;BME280;29633;49.168;9.848;2023-03-18T09:04:47;96563.22;;;18.06;57.32
40992;BME280;29633;49.168;9.848;2023-03-18T09:07:13;96558.88;;;18.21;57.67
40992;BME280;29633;49.168;9.848;2023-03-18T09:09:39;96560.09;;;18.33;57.27
40992;BME280;29633;49.168;9.848;2023-03-18T09:12:05;96558.34;;;18.48;57.51
40992;BME280;29633;49.168;9.848;2023-03-18T09:14:31;96562.00;;;18.62;57.32
40992;BME280;29633;49.168;9.848;2023-03-18T09:16:58;96560.41;;;18.76;57.45
40992;BME280;29633;49.168;9.848;2023-03-18T09:19:25;96559.75;;;18.88;57.37
40992;BME280;29633;49.168;9.848;2023-03-18T09:21:50;96559.00;;;19.02;57.39
40992;BME280;29633;49.168;9.848;2023-03-18T09:24:16;96564.06;;;19.18;56.87
40992;BME280;29633;49.168;9.848;2023-03-18T09:26:42;96557.97;;;19.33;57.07
40992;BME280;29633;49.168;9.848;2023-03-18T09:29:08;96556.34;;;19.46;56.78
40992;BME280;29633;49.168;9.848;2023-03-18T09:31:34;96555.88;;;19.57;57.28
40992;BME280;29633;49.168;9.848;2023-03-18T09:33:59;96552.91;;;19.60;56.89
40992;BME280;29633;49.168;9.848;2023-03-18T09:36:25;96549.78;;;19.72;57.10
40992;BME280;29633;49.168;9.848;2023-03-18T09:38:51;96553.94;;;19.81;56.97
40992;BME280;29633;49.168;9.848;2023-03-18T09:41:28;96545.19;;;19.95;56.58
40992;BME280;29633;49.168;9.848;2023-03-18T09:47:01;96545.88;;;20.25;56.52
40992;BME280;29633;49.168;9.848;2023-03-18T09:49:33;96539.56;;;20.40;56.73
40992;BME280;29633;49.168;9.848;2023-03-18T09:52:23;96541.09;;;20.56;56.75
40992;BME280;29633;49.168;9.848;2023-03-18T09:55:17;96538.59;;;20.69;56.45
40992;BME280;29633;49.168;9.848;2023-03-18T09:57:47;96532.19;;;20.85;56.36
40992;BME280;29633;49.168;9.848;2023-03-18T10:00:30;96534.72;;;20.99;56.51
40992;BME280;29633;49.168;9.848;2023-03-18T10:03:02;96533.16;;;21.05;56.44
40992;BME280;29633;49.168;9.848;2023-03-18T10:05:43;96531.72;;;21.09;56.08
40992;BME280;29633;49.168;9.848;2023-03-18T10:11:05;96536.19;;;21.36;56.19
40992;BME280;29633;49.168;9.848;2023-03-18T10:13:34;96526.78;;;21.27;56.00
40992;BME280;29633;49.168;9.848;2023-03-18T10:16:02;96536.13;;;21.23;56.14
40992;BME280;29633;49.168;9.848;2023-03-18T10:18:36;96526.97;;;21.19;56.60
40992;BME280;29633;49.168;9.848;2023-03-18T10:21:19;96525.56;;;21.23;56.29
40992;BME280;29633;49.168;9.848;2023-03-18T10:23:54;96523.97;;;21.29;56.05
40992;BME280;29633;49.168;9.848;2023-03-18T10:29:27;96525.19;;;21.26;56.11
40992;BME280;29633;49.168;9.848;2023-03-18T10:32:12;96534.91;;;21.26;55.88
40992;BME280;29633;49.168;9.848;2023-03-18T10:37:35;96532.53;;;21.37;56.10
40992;BME280;29633;49.168;9.848;2023-03-18T10:40:15;96538.69;;;21.51;55.73
40992;BME280;29633;49.168;9.848;2023-03-18T10:42:42;96535.47;;;21.55;55.59
40992;BME280;29633;49.168;9.848;2023-03-18T10:45:28;96524.34;;;21.67;55.57
40992;BME280;29633;49.168;9.848;2023-03-18T10:48:59;96517.44;;;21.72;55.67
40992;BME280;29633;49.168;9.848;2023-03-18T10:51:20;96526.59;;;21.76;55.70
40992;BME280;29633;49.168;9.848;2023-03-18T10:53:58;96518.28;;;21.86;55.25
40992;BME280;29633;49.168;9.848;2023-03-18T10:56:26;96522.59;;;21.93;55.13
40992;BME280;29633;49.168;9.848;2023-03-18T10:58:53;96519.38;;;21.98;55.41
40992;BME280;29633;49.168;9.848;2023-03-18T11:01:20;96514.09;;;21.98;55.37
40992;BME280;29633;49.168;9.848;2023-03-18T11:03:52;96511.84;;;22.08;55.28
40992;BME280;29633;49.168;9.848;2023-03-18T11:06:23;96518.78;;;22.16;55.28
40992;BME280;29633;49.168;9.848;2023-03-18T11:09:00;96519.00;;;22.21;55.26
40992;BME280;29633;49.168;9.848;2023-03-18T11:11:31;96512.50;;;22.23;54.96
40992;BME280;29633;49.168;9.848;2023-03-18T11:14:01;96518.19;;;22.27;55.09
40992;BME280;29633;49.168;9.848;2023-03-18T11:16:30;96507.63;;;22.33;54.71
40992;BME280;29633;49.168;9.848;2023-03-18T11:18:57;96502.72;;;22.43;54.72
40992;BME280;29633;49.168;9.848;2023-03-18T11:21:24;96508.84;;;22.57;54.89
40992;BME280;29633;49.168;9.848;2023-03-18T11:24:00;96501.53;;;22.72;54.73
40992;BME280;29633;49.168;9.848;2023-03-18T11:26:52;96498.88;;;22.85;54.57
40992;BME280;29633;49.168;9.848;2023-03-18T11:29:29;96497.66;;;22.88;55.02
40992;BME280;29633;49.168;9.848;2023-03-18T11:31:58;96498.63;;;22.93;54.65
40992;BME280;29633;49.168;9.848;2023-03-18T11:34:25;96492.53;;;22.99;54.76
40992;BME280;29633;49.168;9.848;2023-03-18T11:36:59;96501.47;;;22.98;54.58
40992;BME280;29633;49.168;9.848;2023-03-18T11:39:34;96489.88;;;23.06;54.62
40992;BME280;29633;49.168;9.848;2023-03-18T11:42:02;96486.16;;;23.20;54.63
40992;BME280;29633;49.168;9.848;2023-03-18T11:44:39;96486.53;;;23.30;54.57
40992;BME280;29633;49.168;9.848;2023-03-18T11:47:15;96480.63;;;23.41;54.44
40992;BME280;29633;49.168;9.848;2023-03-18T11:49:44;96478.16;;;23.46;54.58
40992;BME280;29633;49.168;9.848;2023-03-18T11:52:28;96485.06;;;23.54;54.54
40992;BME280;29633;49.168;9.848;2023-03-18T11:55:30;96479.72;;;23.61;54.42
40992;BME280;29633;49.168;9.848;2023-03-18T12:01:22;96473.91;;;23.77;54.59
40992;BME280;29633;49.168;9.848;2023-03-18T12:06:33;96469.38;;;23.90;54.27
40992;BME280;29633;49.168;9.848;2023-03-18T12:11:58;96469.06;;;24.05;54.16
40992;BME280;29633;49.168;9.848;2023-03-18T12:22:25;96458.50;;;24.30;54.52
40992;BME280;29633;49.168;9.848;2023-03-18T12:33:58;96443.84;;;24.52;53.92
40992;BME280;29633;49.168;9.848;2023-03-18T12:36:38;96442.59;;;24.55;54.00
40992;BME280;29633;49.168;9.848;2023-03-18T12:40:00;96431.94;;;24.61;53.80
40992;BME280;29633;49.168;9.848;2023-03-18T12:45:27;96438.78;;;24.69;54.01
40992;BME280;29633;49.168;9.848;2023-03-18T12:47:58;96431.66;;;24.69;53.80
40992;BME280;29633;49.168;9.848;2023-03-18T12:50:33;96428.63;;;24.66;53.76
40992;BME280;29633;49.168;9.848;2023-03-18T12:53:12;96415.75;;;24.69;53.85
40992;BME280;29633;49.168;9.848;2023-03-18T12:55:42;96417.75;;;24.74;53.88
40992;BME280;29633;49.168;9.848;2023-03-18T13:01:04;96421.22;;;24.92;53.61
40992;BME280;29633;49.168;9.848;2023-03-18T13:03:39;96419.69;;;25.03;53.57
40992;BME280;29633;49.168;9.848;2023-03-18T13:16:55;96412.00;;;25.31;53.55
40992;BME280;29633;49.168;9.848;2023-03-18T13:19:23;96410.25;;;25.37;53.09
40992;BME280;29633;49.168;9.848;2023-03-18T13:22:17;96412.25;;;25.41;53.31
40992;BME280;29633;49.168;9.848;2023-03-18T13:44:50;96391.94;;;26.65;53.50
40992;BME280;29633;49.168;9.848;2023-03-18T13:47:21;96391.81;;;26.95;54.15
40992;BME280;29633;49.168;9.848;2023-03-18T13:49:48;96389.88;;;27.18;54.36
40992;BME280;29633;49.168;9.848;2023-03-18T13:52:39;96389.31;;;27.45;55.00
40992;BME280;29633;49.168;9.848;2023-03-18T13:55:58;96384.09;;;27.78;55.24
40992;BME280;29633;49.168;9.848;2023-03-18T13:57:55;96380.13;;;27.97;55.04
40992;BME280;29633;49.168;9.848;2023-03-18T14:00:34;96383.56;;;28.09;54.77
40992;BME280;29633;49.168;9.848;2023-03-18T14:03:19;96373.97;;;28.08;54.46
40992;BME280;29633;49.168;9.848;2023-03-18T14:08:52;96381.66;;;27.93;53.67
40992;BME280;29633;49.168;9.848;2023-03-18T14:13:59;96387.00;;;27.93;52.89
40992;BME280;29633;49.168;9.848;2023-03-18T14:16:27;96379.09;;;27.81;52.52
40992;BME280;29633;49.168;9.848;2023-03-18T14:19:00;96372.88;;;27.76;52.65
40992;BME280;29633;49.168;9.848;2023-03-18T14:21:28;96375.53;;;27.76;52.30
40992;BME280;29633;49.168;9.848;2023-03-18T14:29:45;96368.72;;;27.68;51.68
40992;BME280;29633;49.168;9.848;2023-03-18T14:37:58;96377.06;;;27.44;51.24
40992;BME280;29633;49.168;9.848;2023-03-18T14:40:29;96377.91;;;27.32;51.15
40992;BME280;29633;49.168;9.848;2023-03-18T14:43:01;96367.88;;;27.23;51.18
40992;BME280;29633;49.168;9.848;2023-03-18T14:45:37;96373.81;;;27.13;50.90